createdAt,value
2023-02-16T00:01:10.763Z,98528.59
2023-02-16T00:03:37.501Z,98526.34
2023-02-16T00:06:04.135Z,98528.59
2023-02-16T00:08:30.798Z,98536.13
2023-02-16T00:10:57.417Z,98531.09
2023-02-16T00:13:24.050Z,98526.13
2023-02-16T00:15:50.775Z,98530.50
2023-02-16T00:18:17.545Z,98522.03
2023-02-16T00:20:44.210Z,98527.16
2023-02-16T00:23:10.828Z,98521.16
2023-02-16T00:25:37.491Z,98529.03
2023-02-16T00:28:04.160Z,98532.88
2023-02-16T00:30:30.841Z,98534.34
2023-02-16T00:32:57.529Z,98539.66
2023-02-16T00:35:24.195Z,98542.25
2023-02-16T00:37:50.818Z,98539.75
2023-02-16T00:40:17.467Z,98534.66
2023-02-16T00:42:44.089Z,98530.03
2023-02-16T00:45:10.731Z,98537.16
2023-02-16T00:47:37.448Z,98532.97
2023-02-16T00:50:04.094Z,98531.31
2023-02-16T00:52:30.776Z,98529.19
2023-02-16T00:54:57.448Z,98526.59
2023-02-16T00:57:24.301Z,98526.09
2023-02-16T00:59:51.045Z,98532.53
2023-02-16T01:02:17.764Z,98530.34
2023-02-16T01:04:44.475Z,98534.53
2023-02-16T01:07:11.189Z,98522.28
2023-02-16T01:09:37.867Z,98522.78
2023-02-16T01:12:04.547Z,98527.94
2023-02-16T01:14:31.217Z,98530.63
2023-02-16T01:16:57.856Z,98524.00
2023-02-16T01:19:24.505Z,98519.94
2023-02-16T01:21:51.174Z,98525.34
2023-02-16T01:24:17.866Z,98524.34
2023-02-16T01:26:44.498Z,98528.31
2023-02-16T01:29:11.153Z,98519.19
2023-02-16T01:31:37.958Z,98521.88
2023-02-16T01:34:04.773Z,98521.75
2023-02-16T01:36:31.384Z,98517.84
2023-02-16T01:38:58.103Z,98512.13
2023-02-16T01:41:24.741Z,98522.09
2023-02-16T01:43:51.381Z,98524.16
2023-02-16T01:46:18.065Z,98520.09
2023-02-16T01:48:44.699Z,98522.47
2023-02-16T01:51:11.484Z,98530.78
2023-02-16T01:53:38.136Z,98518.03
2023-02-16T01:56:04.769Z,98522.59
2023-02-16T01:58:31.448Z,98520.72
2023-02-16T02:00:58.079Z,98511.41
2023-02-16T02:03:24.737Z,98511.72
2023-02-16T02:11:13.183Z,98496.56
2023-02-16T02:13:39.815Z,98500.06
2023-02-16T02:16:06.569Z,98493.44
2023-02-16T02:18:33.260Z,98489.72
2023-02-16T02:20:59.962Z,98491.50
2023-02-16T02:23:26.639Z,98488.06
2023-02-16T02:25:53.311Z,98494.41
2023-02-16T02:28:19.950Z,98491.06
2023-02-16T02:30:46.630Z,98488.97
2023-02-16T02:33:13.306Z,98482.88
2023-02-16T02:35:39.935Z,98484.94
2023-02-16T02:38:06.608Z,98483.66
2023-02-16T02:40:33.295Z,98484.06
2023-02-16T02:42:59.974Z,98483.03
2023-02-16T02:45:26.602Z,98483.63
2023-02-16T02:47:53.253Z,98479.34
2023-02-16T02:50:19.996Z,98483.16
2023-02-16T02:52:46.685Z,98488.25
2023-02-16T02:55:13.370Z,98483.59
2023-02-16T02:57:40.057Z,98480.69
2023-02-16T03:00:06.772Z,98475.00
2023-02-16T03:02:33.415Z,98476.34
2023-02-16T03:05:00.106Z,98477.91
2023-02-16T03:07:26.767Z,98484.84
2023-02-16T03:09:53.478Z,98479.78
2023-02-16T03:12:20.118Z,98480.78
2023-02-16T03:14:46.825Z,98484.81
2023-02-16T03:17:13.558Z,98482.75
2023-02-16T03:19:40.193Z,98474.91
2023-02-16T03:22:06.881Z,98467.94
2023-02-16T03:24:33.546Z,98471.69
2023-02-16T03:27:00.238Z,98471.44
2023-02-16T03:29:26.907Z,98471.13
2023-02-16T03:31:53.589Z,98464.22
2023-02-16T03:34:20.290Z,98464.41
2023-02-16T03:36:46.951Z,98471.25
2023-02-16T03:39:13.595Z,98460.13
2023-02-16T03:41:40.196Z,98462.94
2023-02-16T03:44:06.906Z,98466.69
2023-02-16T03:46:33.576Z,98464.75
2023-02-16T03:49:00.261Z,98465.97
2023-02-16T03:51:26.933Z,98467.53
2023-02-16T03:53:53.576Z,98464.63
2023-02-16T03:56:20.231Z,98463.47
2023-02-16T03:58:46.904Z,98469.59
2023-02-16T04:01:13.632Z,98465.03
2023-02-16T04:03:40.294Z,98458.81
2023-02-16T04:06:06.993Z,98458.50
2023-02-16T04:08:33.632Z,98459.19
2023-02-16T04:11:00.319Z,98462.19
2023-02-16T04:13:26.968Z,98458.16
2023-02-16T04:15:53.596Z,98452.06
2023-02-16T04:18:20.265Z,98456.72
2023-02-16T04:20:47.002Z,98457.47
2023-02-16T04:23:13.663Z,98449.66
2023-02-16T04:25:40.543Z,98451.22
2023-02-16T04:28:07.228Z,98449.03
2023-02-16T04:30:34.019Z,98439.53
2023-02-16T04:33:00.736Z,98434.56
2023-02-16T04:35:27.372Z,98432.03
2023-02-16T04:37:54.032Z,98431.22
2023-02-16T04:40:20.715Z,98420.56
2023-02-16T04:42:47.416Z,98421.69
2023-02-16T04:45:14.103Z,98422.53
2023-02-16T04:47:40.746Z,98422.91
2023-02-16T04:50:07.401Z,98427.16
2023-02-16T04:52:34.017Z,98427.69
2023-02-16T04:55:00.653Z,98419.59
2023-02-16T04:57:27.268Z,98418.25
2023-02-16T04:59:53.941Z,98413.72
2023-02-16T05:02:20.605Z,98411.63
2023-02-16T05:04:47.447Z,98420.63
2023-02-16T05:07:14.118Z,98417.13
2023-02-16T05:09:40.776Z,98418.91
2023-02-16T05:12:07.445Z,98419.59
2023-02-16T05:14:34.090Z,98419.94
2023-02-16T05:17:00.744Z,98420.13
2023-02-16T05:19:27.460Z,98416.25
2023-02-16T05:21:54.050Z,98411.91
2023-02-16T05:24:20.766Z,98412.44
2023-02-16T05:26:47.439Z,98415.25
2023-02-16T05:29:14.087Z,98422.72
2023-02-16T05:31:40.813Z,98422.84
2023-02-16T05:34:07.453Z,98417.69
2023-02-16T05:36:34.216Z,98416.06
2023-02-16T05:39:00.995Z,98410.88
2023-02-16T05:41:27.678Z,98414.09
2023-02-16T05:43:54.284Z,98414.63
2023-02-16T05:46:20.951Z,98413.50
2023-02-16T05:48:47.627Z,98414.69
2023-02-16T05:51:15.328Z,98419.16
2023-02-16T05:53:41.961Z,98430.47
2023-02-16T05:56:08.619Z,98423.13
2023-02-16T05:58:35.288Z,98430.91
2023-02-16T06:01:02.158Z,98426.13
2023-02-16T06:03:28.998Z,98429.97
2023-02-16T06:05:55.656Z,98426.25
2023-02-16T06:08:22.254Z,98432.47
2023-02-16T06:10:48.874Z,98437.34
2023-02-16T06:13:15.481Z,98444.09
2023-02-16T06:15:42.245Z,98445.41
2023-02-16T06:18:08.917Z,98437.78
2023-02-16T06:20:35.594Z,98447.78
2023-02-16T06:23:02.206Z,98449.97
2023-02-16T06:25:28.882Z,98448.63
2023-02-16T06:27:55.554Z,98452.03
2023-02-16T06:30:22.255Z,98451.00
2023-02-16T06:32:48.965Z,98453.94
2023-02-16T06:35:15.650Z,98459.84
2023-02-16T06:37:42.295Z,98458.50
2023-02-16T06:40:08.953Z,98462.44
2023-02-16T06:42:35.615Z,98460.38
2023-02-16T06:45:02.219Z,98465.13
2023-02-16T06:47:28.921Z,98458.94
2023-02-16T06:49:55.527Z,98459.22
2023-02-16T06:52:22.341Z,98468.97
2023-02-16T06:54:49.014Z,98466.78
2023-02-16T06:57:15.664Z,98464.94
2023-02-16T06:59:42.278Z,98471.16
2023-02-16T07:02:09.040Z,98465.44
2023-02-16T07:04:35.750Z,98459.63
2023-02-16T07:07:02.445Z,98463.78
2023-02-16T07:09:29.117Z,98467.50
2023-02-16T07:11:55.765Z,98464.25
2023-02-16T07:14:22.383Z,98462.03
2023-02-16T07:16:49.002Z,98464.41
2023-02-16T07:19:15.644Z,98462.94
2023-02-16T07:21:42.313Z,98453.97
2023-02-16T07:24:08.974Z,98457.56
2023-02-16T07:26:35.625Z,98462.25
2023-02-16T07:29:02.344Z,98446.91
2023-02-16T07:31:29.149Z,98455.06
2023-02-16T07:33:55.905Z,98456.88
2023-02-16T07:36:22.579Z,98458.38
2023-02-16T07:38:49.269Z,98454.81
2023-02-16T07:41:15.870Z,98447.78
2023-02-16T07:43:42.538Z,98461.31
2023-02-16T07:46:09.276Z,98454.69
2023-02-16T07:48:35.954Z,98453.50
2023-02-16T07:51:03.215Z,98449.75
2023-02-16T07:53:30.078Z,98454.31
2023-02-16T07:55:56.754Z,98453.59
2023-02-16T07:58:23.385Z,98452.03
2023-02-16T08:00:50.058Z,98454.31
2023-02-16T08:03:16.846Z,98461.03
2023-02-16T08:05:43.546Z,98458.41
2023-02-16T08:08:10.217Z,98454.59
2023-02-16T08:10:36.898Z,98458.78
2023-02-16T08:13:03.581Z,98459.84
2023-02-16T08:15:30.202Z,98463.56
2023-02-16T08:17:56.867Z,98460.75
2023-02-16T08:20:28.373Z,98462.16
2023-02-16T08:23:02.064Z,98456.84
2023-02-16T08:25:28.700Z,98469.97
2023-02-16T08:27:55.394Z,98459.69
2023-02-16T08:30:22.035Z,98460.56
2023-02-16T08:32:48.715Z,98463.19
2023-02-16T08:35:15.359Z,98462.47
2023-02-16T08:37:42.050Z,98460.31
2023-02-16T08:40:08.670Z,98466.72
2023-02-16T08:42:35.388Z,98471.81
2023-02-16T08:45:02.039Z,98465.69
2023-02-16T08:47:28.670Z,98467.19
2023-02-16T08:49:55.310Z,98468.56
2023-02-16T08:52:21.934Z,98464.44
2023-02-16T08:54:48.613Z,98465.09
2023-02-16T08:57:15.225Z,98461.91
2023-02-16T08:59:41.896Z,98463.88
2023-02-16T09:02:08.538Z,98461.66
2023-02-16T09:04:35.357Z,98454.97
2023-02-16T09:07:02.020Z,98459.19
2023-02-16T09:09:28.731Z,98456.84
2023-02-16T09:11:55.415Z,98464.25
2023-02-16T09:14:22.029Z,98457.38
2023-02-16T09:16:48.810Z,98458.03
2023-02-16T09:19:15.453Z,98459.84
2023-02-16T09:21:42.088Z,98455.53
2023-02-16T09:24:08.764Z,98452.47
2023-02-16T09:26:35.424Z,98455.31
2023-02-16T09:29:02.281Z,98449.69
2023-02-16T09:31:29.134Z,98444.97
2023-02-16T09:33:55.817Z,98439.38
2023-02-16T09:36:22.427Z,98449.38
2023-02-16T09:38:49.095Z,98442.03
2023-02-16T09:41:15.818Z,98445.19
2023-02-16T09:43:42.421Z,98444.09
2023-02-16T09:46:09.139Z,98441.28
2023-02-16T09:48:35.745Z,98442.25
2023-02-16T09:51:02.368Z,98436.63
2023-02-16T09:53:29.031Z,98435.81
2023-02-16T09:55:55.705Z,98429.50
2023-02-16T09:58:22.366Z,98435.03
2023-02-16T10:00:49.045Z,98444.41
2023-02-16T10:03:15.705Z,98445.66
2023-02-16T10:05:42.386Z,98446.00
2023-02-16T10:08:09.078Z,98444.53
2023-02-16T10:10:35.745Z,98451.59
2023-02-16T10:13:02.627Z,98442.28
2023-02-16T10:15:29.334Z,98439.41
2023-02-16T10:17:56.695Z,98435.69
2023-02-16T10:20:23.419Z,98432.50
2023-02-16T10:22:50.122Z,98425.28
2023-02-16T10:25:16.841Z,98429.69
2023-02-16T10:27:43.519Z,98427.53
2023-02-16T10:30:10.263Z,98426.31
2023-02-16T10:32:39.427Z,98418.56
2023-02-16T10:35:10.365Z,98418.44
2023-02-16T10:37:37.014Z,98420.72
2023-02-16T10:40:03.685Z,98428.44
2023-02-16T10:42:30.322Z,98413.13
2023-02-16T10:44:56.974Z,98418.09
2023-02-16T10:47:23.653Z,98426.00
2023-02-16T10:49:50.342Z,98418.59
2023-02-16T10:52:17.014Z,98413.13
2023-02-16T10:54:43.709Z,98406.78
2023-02-16T10:57:10.379Z,98399.59
2023-02-16T10:59:37.023Z,98395.56
2023-02-16T11:02:03.666Z,98391.25
2023-02-16T11:04:30.327Z,98393.63
2023-02-16T11:06:57.074Z,98399.16
2023-02-16T11:09:23.741Z,98395.84
2023-02-16T11:11:50.386Z,98394.16
2023-02-16T11:14:17.030Z,98375.06
2023-02-16T11:16:43.672Z,98385.03
2023-02-16T11:19:10.338Z,98391.41
2023-02-16T11:21:36.944Z,98392.47
2023-02-16T11:24:04.562Z,98392.94
2023-02-16T11:26:31.195Z,98386.34
2023-02-16T11:28:57.857Z,98383.41
2023-02-16T11:31:24.509Z,98388.00
2023-02-16T11:33:51.162Z,98386.28
2023-02-16T11:36:17.781Z,98381.16
2023-02-16T11:38:44.427Z,98373.06
2023-02-16T11:41:11.132Z,98369.69
2023-02-16T11:43:37.846Z,98364.16
2023-02-16T11:46:04.761Z,98359.69
2023-02-16T11:48:31.634Z,98357.09
2023-02-16T11:50:58.303Z,98348.91
2023-02-16T11:53:24.976Z,98344.13
2023-02-16T11:55:51.589Z,98350.81
2023-02-16T11:58:18.277Z,98347.50
2023-02-16T12:00:44.897Z,98343.66
2023-02-16T12:03:11.522Z,98339.34
2023-02-16T12:05:38.159Z,98339.22
2023-02-16T12:08:04.829Z,98330.69
2023-02-16T12:10:31.494Z,98315.50
2023-02-16T12:12:58.174Z,98314.44
2023-02-16T12:15:26.779Z,98317.47
2023-02-16T12:17:53.495Z,98309.28
2023-02-16T12:20:20.110Z,98304.84
2023-02-16T12:22:46.817Z,98298.75
2023-02-16T12:25:13.508Z,98302.09
2023-02-16T12:27:40.138Z,98299.88
2023-02-16T12:30:06.866Z,98302.47
2023-02-16T12:32:33.528Z,98303.25
2023-02-16T12:35:00.219Z,98295.69
2023-02-16T12:37:26.900Z,98292.28
2023-02-16T12:39:53.515Z,98288.59
2023-02-16T12:42:20.148Z,98280.63
2023-02-16T12:44:46.851Z,98284.13
2023-02-16T12:47:13.635Z,98279.63
2023-02-16T12:49:40.318Z,98274.88
2023-02-16T12:52:06.931Z,98278.16
2023-02-16T12:54:33.550Z,98271.13
2023-02-16T12:57:00.231Z,98270.03
2023-02-16T12:59:26.903Z,98273.69
2023-02-16T13:01:53.545Z,98261.75
2023-02-16T13:04:20.210Z,98267.16
2023-02-16T13:06:46.911Z,98260.19
2023-02-16T13:09:13.547Z,98251.13
2023-02-16T13:11:43.578Z,98256.19
2023-02-16T13:14:10.215Z,98246.78
2023-02-16T13:16:36.977Z,98250.00
2023-02-16T13:19:03.674Z,98250.13
2023-02-16T13:21:31.950Z,98245.03
2023-02-16T13:24:01.769Z,98243.13
2023-02-16T13:26:28.470Z,98244.09
2023-02-16T13:28:55.319Z,98239.47
2023-02-16T13:31:22.054Z,98241.75
2023-02-16T13:33:48.744Z,98229.50
2023-02-16T13:36:15.420Z,98234.59
2023-02-16T13:38:42.055Z,98227.41
2023-02-16T13:41:08.694Z,98234.28
2023-02-16T13:43:35.370Z,98228.16
2023-02-16T13:46:02.134Z,98227.94
2023-02-16T13:48:28.871Z,98231.38
2023-02-16T13:50:55.561Z,98238.50
2023-02-16T13:53:22.235Z,98235.81
2023-02-16T13:55:48.868Z,98241.69
2023-02-16T13:58:15.527Z,98233.34
2023-02-16T14:00:42.140Z,98238.13
2023-02-16T14:03:11.922Z,98237.72
2023-02-16T14:05:38.868Z,98237.22
2023-02-16T14:08:05.557Z,98240.38
2023-02-16T14:10:32.228Z,98238.16
2023-02-16T14:12:58.884Z,98233.16
2023-02-16T14:15:25.550Z,98231.25
2023-02-16T14:17:52.206Z,98227.16
2023-02-16T14:20:18.886Z,98233.66
2023-02-16T14:22:45.511Z,98234.19
2023-02-16T14:25:12.145Z,98238.38
2023-02-16T14:27:38.795Z,98232.94
2023-02-16T14:30:05.532Z,98237.50
2023-02-16T14:32:32.276Z,98235.78
2023-02-16T14:34:58.996Z,98228.78
2023-02-16T14:37:25.903Z,98235.41
2023-02-16T14:40:07.307Z,98236.56
2023-02-16T14:42:34.851Z,98232.06
2023-02-16T14:45:01.530Z,98229.63
2023-02-16T14:47:28.215Z,98225.28
2023-02-16T14:49:54.951Z,98227.75
2023-02-16T14:52:21.595Z,98230.94
2023-02-16T14:54:48.302Z,98225.00
2023-02-16T14:57:14.998Z,98228.16
2023-02-16T14:59:41.659Z,98227.75
2023-02-16T15:02:08.373Z,98225.69
2023-02-16T15:04:35.059Z,98236.91
2023-02-16T15:07:01.707Z,98231.41
2023-02-16T15:09:28.331Z,98228.75
2023-02-16T15:11:54.974Z,98230.16
2023-02-16T15:14:21.596Z,98238.47
2023-02-16T15:16:48.354Z,98236.81
2023-02-16T15:19:15.083Z,98234.41
2023-02-16T15:21:41.696Z,98237.44
2023-02-16T15:24:08.357Z,98240.94
2023-02-16T15:26:34.966Z,98242.59
2023-02-16T15:29:01.671Z,98231.78
2023-02-16T15:31:28.430Z,98232.41
2023-02-16T15:33:55.066Z,98236.66
2023-02-16T15:36:21.731Z,98232.13
2023-02-16T15:38:48.366Z,98231.72
2023-02-16T15:41:15.032Z,98236.38
2023-02-16T15:43:41.693Z,98230.84
2023-02-16T15:46:08.485Z,98234.66
2023-02-16T15:48:35.209Z,98226.25
2023-02-16T15:51:01.883Z,98227.34
2023-02-16T15:53:28.583Z,98226.03
2023-02-16T15:55:55.303Z,98230.91
2023-02-16T15:58:22.011Z,98237.19
2023-02-16T16:00:48.696Z,98233.84
2023-02-16T16:03:16.662Z,98240.31
2023-02-16T16:05:43.367Z,98242.19
2023-02-16T16:08:12.382Z,98236.97
2023-02-16T16:10:39.002Z,98238.63
2023-02-16T16:13:05.685Z,98240.06
2023-02-16T16:15:32.310Z,98246.25
2023-02-16T16:17:58.934Z,98247.63
2023-02-16T16:20:25.577Z,98249.44
2023-02-16T16:22:52.260Z,98244.63
2023-02-16T16:25:18.898Z,98250.69
2023-02-16T16:27:45.522Z,98249.19
2023-02-16T16:30:12.222Z,98256.13
2023-02-16T16:32:38.933Z,98256.91
2023-02-16T16:35:05.623Z,98254.41
2023-02-16T16:37:32.282Z,98251.84
2023-02-16T16:39:58.982Z,98251.84
2023-02-16T16:42:25.597Z,98260.81
2023-02-16T16:44:52.214Z,98258.72
2023-02-16T16:47:18.850Z,98252.03
2023-02-16T16:49:45.522Z,98262.56
2023-02-16T16:52:12.348Z,98268.63
2023-02-16T16:54:39.020Z,98276.94
2023-02-16T16:57:05.658Z,98281.97
2023-02-16T16:59:32.283Z,98276.41
2023-02-16T17:01:58.972Z,98279.09
2023-02-16T17:04:25.661Z,98278.13
2023-02-16T17:06:52.331Z,98284.22
2023-02-16T17:09:18.960Z,98290.06
2023-02-16T17:11:45.631Z,98291.41
2023-02-16T17:14:12.305Z,98290.25
2023-02-16T17:16:38.977Z,98291.38
2023-02-16T17:19:05.694Z,98282.69
2023-02-16T17:21:32.350Z,98287.66
2023-02-16T17:23:59.019Z,98283.81
2023-02-16T17:26:25.670Z,98292.53
2023-02-16T17:28:52.456Z,98283.81
2023-02-16T17:31:19.135Z,98289.38
2023-02-16T17:33:45.809Z,98294.00
2023-02-16T17:36:12.498Z,98296.28
2023-02-16T17:38:39.156Z,98286.75
2023-02-16T17:41:05.827Z,98288.03
2023-02-16T17:43:32.458Z,98297.16
2023-02-16T17:45:59.166Z,98302.72
2023-02-16T17:48:27.995Z,98300.75
2023-02-16T17:50:54.965Z,98299.88
2023-02-16T17:53:22.182Z,98306.09
2023-02-16T17:55:48.829Z,98296.06
2023-02-16T17:58:15.450Z,98303.56
2023-02-16T18:00:42.053Z,98303.16
2023-02-16T18:03:08.776Z,98303.31
2023-02-16T18:05:35.409Z,98302.72
2023-02-16T18:08:02.059Z,98298.53
2023-02-16T18:10:28.753Z,98307.22
2023-02-16T18:12:55.381Z,98309.06
2023-02-16T18:15:22.014Z,98305.09
2023-02-16T18:17:48.685Z,98318.41
2023-02-16T18:20:15.421Z,98315.81
2023-02-16T18:22:42.090Z,98312.41
2023-02-16T18:25:08.802Z,98319.69
2023-02-16T18:27:35.521Z,98320.75
2023-02-16T18:30:02.257Z,98316.72
2023-02-16T18:32:28.945Z,98328.44
2023-02-16T18:34:55.617Z,98325.31
2023-02-16T18:37:22.224Z,98321.78
2023-02-16T18:39:48.899Z,98327.97
2023-02-16T18:42:15.618Z,98327.72
2023-02-16T18:44:42.257Z,98329.88
2023-02-16T18:47:08.848Z,98328.38
2023-02-16T18:49:35.487Z,98326.94
2023-02-16T18:52:02.119Z,98330.38
2023-02-16T18:54:28.776Z,98345.53
2023-02-16T18:56:55.474Z,98346.63
2023-02-16T18:59:22.130Z,98346.81
2023-02-16T19:01:48.772Z,98336.50
2023-02-16T19:04:15.458Z,98343.63
2023-02-16T19:06:42.181Z,98339.66
2023-02-16T19:09:08.858Z,98338.34
2023-02-16T19:11:35.504Z,98333.53
2023-02-16T19:14:02.239Z,98328.84
2023-02-16T19:16:28.907Z,98331.75
2023-02-16T19:18:55.635Z,98336.00
2023-02-16T19:21:22.261Z,98342.94
2023-02-16T19:23:48.885Z,98331.41
2023-02-16T19:26:15.586Z,98334.94
2023-02-16T19:28:42.199Z,98341.25
2023-02-16T19:31:09.487Z,98341.13
2023-02-16T19:33:36.147Z,98339.75
2023-02-16T19:36:03.084Z,98346.22
2023-02-16T19:38:29.909Z,98343.47
2023-02-16T19:40:56.560Z,98348.84
2023-02-16T19:43:23.200Z,98344.16
2023-02-16T19:45:49.825Z,98350.38
2023-02-16T19:48:16.549Z,98348.84
2023-02-16T19:50:43.249Z,98346.06
2023-02-16T19:53:09.946Z,98354.06
2023-02-16T19:55:36.543Z,98351.59
2023-02-16T19:58:03.258Z,98348.84
2023-02-16T20:00:29.928Z,98354.59
2023-02-16T20:02:56.664Z,98347.31
2023-02-16T20:05:23.408Z,98345.84
2023-02-16T20:07:50.079Z,98346.50
2023-02-16T20:10:16.781Z,98348.97
2023-02-16T20:12:43.492Z,98358.75
2023-02-16T20:15:10.320Z,98362.88
2023-02-16T20:17:36.963Z,98359.84
2023-02-16T20:20:03.641Z,98355.72
2023-02-16T20:22:30.365Z,98356.00
2023-02-16T20:24:57.024Z,98348.31
2023-02-16T20:27:23.686Z,98356.81
2023-02-16T20:29:50.332Z,98351.56
2023-02-16T20:32:17.057Z,98356.56
2023-02-16T20:34:43.754Z,98346.91
2023-02-16T20:37:10.418Z,98351.72
2023-02-16T20:39:37.018Z,98352.66
2023-02-16T20:42:03.652Z,98354.88
2023-02-16T20:44:30.301Z,98351.56
2023-02-16T20:46:56.982Z,98353.25
2023-02-16T20:49:23.668Z,98346.63
2023-02-16T20:51:50.319Z,98350.47
2023-02-16T20:54:16.978Z,98350.44
2023-02-16T20:56:43.618Z,98354.00
2023-02-16T20:59:10.242Z,98353.75
2023-02-16T21:01:36.981Z,98354.94
2023-02-16T21:04:03.734Z,98354.91
2023-02-16T21:06:30.356Z,98353.84
2023-02-16T21:08:56.987Z,98356.56
2023-02-16T21:11:23.630Z,98355.38
2023-02-16T21:13:50.372Z,98356.16
2023-02-16T21:16:16.999Z,98356.91
2023-02-16T21:18:43.677Z,98372.72
2023-02-16T21:21:10.393Z,98367.72
2023-02-16T21:23:37.065Z,98363.00
2023-02-16T21:26:04.024Z,98359.59
2023-02-16T21:28:30.847Z,98364.56
2023-02-16T21:30:57.539Z,98353.56
2023-02-16T21:33:24.177Z,98350.53
2023-02-16T21:35:50.873Z,98360.81
2023-02-16T21:38:17.557Z,98359.94
2023-02-16T21:40:44.199Z,98358.34
2023-02-16T21:43:10.821Z,98351.41
2023-02-16T21:45:37.585Z,98346.94
2023-02-16T21:48:04.245Z,98360.63
2023-02-16T21:50:30.835Z,98350.03
2023-02-16T21:52:57.459Z,98351.78
2023-02-16T21:55:24.150Z,98350.59
2023-02-16T21:57:50.797Z,98341.88
2023-02-16T22:00:17.441Z,98344.63
2023-02-16T22:02:44.036Z,98339.13
2023-02-16T22:05:10.690Z,98338.03
2023-02-16T22:07:37.383Z,98340.22
2023-02-16T22:10:04.103Z,98340.56
2023-02-16T22:12:30.774Z,98339.69
2023-02-16T22:14:57.404Z,98337.25
2023-02-16T22:17:24.051Z,98340.44
2023-02-16T22:19:50.746Z,98333.34
2023-02-16T22:22:17.408Z,98327.28
2023-02-16T22:24:44.074Z,98333.88
2023-02-16T22:27:10.701Z,98331.00
2023-02-16T22:29:37.364Z,98334.31
2023-02-16T22:32:04.061Z,98329.06
2023-02-16T22:34:30.720Z,98333.59
2023-02-16T22:36:57.362Z,98337.44
2023-02-16T22:39:24.034Z,98330.34
2023-02-16T22:41:50.697Z,98337.16
2023-02-16T22:44:17.373Z,98334.47
2023-02-16T22:46:44.046Z,98337.34
2023-02-16T22:49:10.685Z,98333.66
2023-02-16T22:51:37.415Z,98327.28
2023-02-16T22:54:04.090Z,98327.63
2023-02-16T22:56:30.761Z,98329.72
2023-02-16T22:58:57.945Z,98329.34
2023-02-16T23:01:24.743Z,98337.44
2023-02-16T23:03:51.437Z,98328.38
2023-02-16T23:06:18.120Z,98319.84
2023-02-16T23:08:44.808Z,98315.44
2023-02-16T23:11:11.410Z,98317.50
2023-02-16T23:13:38.157Z,98315.16
2023-02-16T23:16:05.115Z,98320.53
2023-02-16T23:18:31.961Z,98316.63
2023-02-16T23:20:58.635Z,98316.78
2023-02-16T23:23:25.282Z,98318.09
2023-02-16T23:25:52.402Z,98331.63
2023-02-16T23:28:20.087Z,98326.03
2023-02-16T23:30:46.726Z,98326.91
2023-02-16T23:33:13.356Z,98327.41
2023-02-16T23:35:39.985Z,98330.53
2023-02-16T23:38:06.663Z,98323.56
2023-02-16T23:40:33.316Z,98324.16
2023-02-16T23:43:00.007Z,98327.97
2023-02-16T23:45:26.645Z,98325.50
2023-02-16T23:47:53.319Z,98327.41
2023-02-16T23:50:19.923Z,98319.06
2023-02-16T23:52:46.582Z,98319.00
2023-02-16T23:55:13.274Z,98313.09
2023-02-16T23:57:39.966Z,98321.78
